| time (UTC) | temp C | wind direction | speed KPH | gust KPH | rain 1hr cm | rain 24hr cm | rain mn cm | humidity % | barometer mb |
| 20260510071503 | 11 | 218 | 4.8 | 11.3 | 0.03 | 2.31 | 0.91 | 100 | 1011.1 |
| 20260510071004 | 11 | 198 | 12.9 | 16.1 | 0.03 | 2.31 | 0.91 | 100 | 1011.0 |
| 20260510070504 | 11 | 199 | 9.7 | 12.9 | 0.03 | 2.31 | 0.91 | 100 | 1011.4 |
| 20260510070003 | 11 | 210 | 8.0 | 11.3 | 0.03 | 2.31 | 0.91 | 100 | 1011.4 |
| 20260510065503 | 11 | 201 | 6.4 | 11.3 | 0.03 | 2.31 | 0.91 | 100 | 1011.6 |
| 20260510065003 | 11 | 175 | 9.7 | 12.9 | 0.03 | 2.31 | 0.91 | 100 | 1011.4 |
| 20260510064503 | 11 | 2 | 3.2 | 8.0 | 0.00 | 2.29 | 0.89 | 100 | 1012.3 |
| 20260510064004 | 11 | 217 | 6.4 | 11.3 | 0.00 | 2.29 | 0.89 | 100 | 1012.3 |
| 20260510063503 | 11 | 206 | 4.8 | 8.0 | 0.00 | 2.29 | 0.89 | 100 | 1011.9 |
| 20260510063003 | 11 | 181 | 1.6 | 3.2 | 0.03 | 2.29 | 0.89 | 100 | 1012.0 |
| 20260510062503 | 11 | 184 | 1.6 | 3.2 | 0.23 | 2.29 | 0.89 | 100 | 1011.8 |
| 20260510062003 | 11 | 187 | 1.6 | 3.2 | 0.38 | 2.29 | 0.89 | 100 | 1011.8 |
| 20260510061503 | 11 | 208 | 1.6 | 3.2 | 0.46 | 2.29 | 0.89 | 100 | 1011.7 |
| 20260510061003 | 11 | 195 | 3.2 | 4.8 | 0.53 | 2.29 | 0.89 | 100 | 1011.9 |
| 20260510060503 | 11 | 198 | 4.8 | 4.8 | 0.56 | 2.29 | 0.89 | 100 | 1012.0 |
| 20260510060004 | 11 | 360 | 3.2 | 8.0 | 0.56 | 2.29 | 0.89 | 100 | 1012.1 |
| 20260510055717 | 11 | 350 | 6.4 | 8.0 | 0.58 | 2.29 | 0.89 | 100 | 1012.1 |
| 20260510055003 | 11 | 191 | 3.2 | 11.3 | 0.64 | 2.29 | 0.89 | 100 | 1011.8 |
| 20260510054503 | 12 | 197 | 8.0 | 12.9 | 0.71 | 2.29 | 0.89 | 100 | 1011.6 |
| 20260510054003 | 12 | 218 | 6.4 | 16.1 | 0.84 | 2.29 | 0.89 | 100 | 1011.6 |
| 20260510053717 | 12 | 212 | 9.7 | 16.1 | 0.86 | 2.29 | 0.89 | 100 | 1011.5 |
| 20260510053003 | 12 | 132 | 9.7 | 11.3 | 0.84 | 2.26 | 0.86 | 100 | 1011.5 |
| 20260510052503 | 12 | 77 | 3.2 | 4.8 | 0.66 | 2.06 | 0.66 | 100 | 1012.2 |
| 20260510052003 | 12 | 193 | 4.8 | 4.8 | 0.51 | 1.91 | 0.51 | 100 | 1012.6 |
| 20260510051503 | 12 | 28 | 1.6 | 8.0 | 0.43 | 1.83 | 0.43 | 100 | 1012.6 |
| 20260510051003 | 12 | 254 | 3.2 | 8.0 | 0.36 | 1.75 | 0.36 | 100 | 1012.3 |
| 20260510050717 | 12 | 222 | 4.8 | 8.0 | 0.36 | 1.75 | 0.36 | 100 | 1012.3 |
| 20260510050003 | 11 | 240 | 4.8 | 11.3 | 0.33 | 1.73 | 0.33 | 100 | 1012.3 |
| 20260510045503 | 11 | 207 | 8.0 | 8.0 | 0.30 | 1.70 | 0.30 | 100 | 1012.0 |
| 20260510045003 | 11 | 231 | 4.8 | 4.8 | 0.25 | 1.65 | 0.25 | 100 | 1012.4 |
| 20260510044716 | 11 | 231 | 3.2 | 4.8 | 0.23 | 1.63 | 0.23 | 100 | 1012.3 |
| 20260510044003 | 11 | 290 | 3.2 | 8.0 | 0.05 | 1.45 | 0.05 | 100 | 1012.3 |
| 20260510043503 | 11 | 266 | 3.2 | 4.8 | 0.03 | 1.42 | 0.03 | 100 | 1012.2 |
| 20260510043004 | 11 | 221 | 1.6 | 3.2 | 0.03 | 1.42 | 0.03 | 100 | 1011.9 |
| 20260510042718 | 11 | 214 | 1.6 | 3.2 | 0.00 | 1.40 | 0.00 | 100 | 1012.0 |
| 20260510042003 | 11 | 193 | 3.2 | 4.8 | 0.00 | 1.40 | 0.00 | 100 | 1011.9 |
| 20260510041503 | 11 | 192 | 3.2 | 4.8 | 0.00 | 1.40 | 0.00 | 100 | 1011.6 |
| 20260510041003 | 11 | 193 | 3.2 | 11.3 | 0.00 | 1.40 | 0.00 | 100 | 1011.5 |
| 20260510040503 | 11 | 182 | 8.0 | 12.9 | 0.03 | 1.40 | 0.00 | 100 | 1011.5 |
| 20260510040003 | 11 | 196 | 8.0 | 12.9 | 0.05 | 1.40 | 0.00 | 100 | 1011.4 |
| 20260510035503 | 11 | 196 | 6.4 | 12.9 | 0.10 | 1.40 | 1.40 | 100 | 1011.4 |
| 20260510035003 | 11 | 189 | 6.4 | 11.3 | 0.18 | 1.40 | 1.40 | 100 | 1011.3 |
| 20260510034718 | 11 | 192 | 8.0 | 11.3 | 0.20 | 1.40 | 1.40 | 100 | 1011.2 |
| 20260510034003 | 11 | 197 | 4.8 | 4.8 | 0.28 | 1.40 | 1.40 | 100 | 1011.2 |
| 20260510033503 | 11 | 196 | 3.2 | 8.0 | 0.30 | 1.40 | 1.40 | 100 | 1011.4 |
| 20260510033003 | 11 | 202 | 4.8 | 8.0 | 0.36 | 1.40 | 1.40 | 100 | 1011.6 |
| 20260510032503 | 11 | 192 | 4.8 | 8.0 | 0.41 | 1.40 | 1.40 | 100 | 1011.4 |
| 20260510032003 | 11 | 193 | 6.4 | 11.3 | 0.48 | 1.42 | 1.40 | 100 | 1011.3 |
| 20260510031504 | 11 | 183 | 6.4 | 11.3 | 0.58 | 1.42 | 1.40 | 100 | 1011.4 |
| 20260510031003 | 11 | 183 | 9.7 | 12.9 | 0.94 | 1.42 | 1.40 | 100 | 1011.5 |
| 20260510030503 | 11 | 181 | 8.0 | 19.3 | 0.99 | 1.40 | 1.37 | 100 | 1011.6 |
| 20260510030003 | 11 | 183 | 12.9 | 22.5 | 0.99 | 1.37 | 1.35 | 100 | 1011.4 |
| 20260510025503 | 11 | 187 | 11.3 | 16.1 | 0.99 | 1.32 | 1.30 | 100 | 1011.8 |
| 20260510025003 | 11 | 170 | 4.8 | 8.0 | 0.99 | 1.27 | 1.22 | 100 | 1012.1 |
| 20260510024503 | 11 | 147 | 0.0 | 3.2 | 0.94 | 1.22 | 1.17 | 100 | 1012.3 |
| 20260510024003 | 11 | 116 | 4.8 | 8.0 | 0.86 | 1.17 | 1.12 | 100 | 1012.2 |
| 20260510023717 | 11 | 239 | 3.2 | 8.0 | 0.84 | 1.14 | 1.09 | 100 | 1012.4 |
| 20260510023003 | 11 | 304 | 3.2 | 12.9 | 0.79 | 1.09 | 1.04 | 100 | 1012.9 |
| 20260510022503 | 11 | 351 | 9.7 | 16.1 | 0.74 | 1.07 | 0.99 | 100 | 1012.5 |
| 20260510022003 | 11 | 2 | 12.9 | 24.1 | 0.66 | 0.99 | 0.91 | 100 | 1012.7 |
| 20260510021717 | 11 | 358 | 9.7 | 22.5 | 0.61 | 0.94 | 0.86 | 97 | 1012.6 |
| 20260510021003 | 11 | 354 | 14.5 | 19.3 | 0.20 | 0.56 | 0.46 | 96 | 1012.6 |
| 20260510020717 | 12 | 349 | 8.0 | 12.9 | 0.13 | 0.51 | 0.38 | 95 | 1012.3 |
| 20260510020216 | 12 | 5 | 12.9 | 24.1 | 0.10 | 0.46 | 0.33 | 94 | 1012.5 |
| 20260510015503 | 12 | 358 | 19.3 | 38.6 | 0.05 | 0.46 | 0.30 | 88 | 1012.1 |
| 20260510015216 | 13 | 338 | 16.1 | 30.6 | 0.00 | 0.38 | 0.25 | 84 | 1012.0 |
| 20260510014503 | 15 | 340 | 24.1 | 33.8 | 0.00 | 0.38 | 0.25 | 75 | 1011.7 |
| 20260510014003 | 16 | 273 | 11.3 | 16.1 | 0.00 | 0.38 | 0.25 | 69 | 1011.2 |
| 20260510013504 | 16 | 208 | 9.7 | 19.3 | 0.00 | 0.38 | 0.25 | 69 | 1010.0 |
| 20260510013003 | 16 | 215 | 12.9 | 22.5 | 0.00 | 0.38 | 0.25 | 68 | 1009.8 |
| 20260510012503 | 16 | 197 | 9.7 | 16.1 | 0.00 | 0.38 | 0.25 | 69 | 1009.7 |
| 20260510012003 | 16 | 197 | 14.5 | 19.3 | 0.00 | 0.38 | 0.25 | 68 | 1009.6 |
| 20260510011717 | 16 | 201 | 12.9 | 22.5 | 0.00 | 0.38 | 0.25 | 69 | 1009.5 |
| 20260510011003 | 16 | 207 | 12.9 | 22.5 | 0.00 | 0.38 | 0.25 | 68 | 1009.5 |
| 20260510010503 | 16 | 227 | 12.9 | 16.1 | 0.00 | 0.38 | 0.25 | 68 | 1009.3 |
| 20260510010003 | 16 | 205 | 14.5 | 22.5 | 0.00 | 0.41 | 0.25 | 67 | 1009.6 |
| 20260510005503 | 16 | 205 | 12.9 | 19.3 | 0.00 | 0.41 | 0.25 | 67 | 1009.5 |
| 20260510005003 | 16 | 204 | 12.9 | 16.1 | 0.00 | 0.41 | 0.25 | 67 | 1009.5 |
| 20260510004503 | 17 | 210 | 11.3 | 24.1 | 0.00 | 0.41 | 0.25 | 67 | 1009.6 |
| 20260510004003 | 17 | 219 | 19.3 | 27.4 | 0.00 | 0.41 | 0.25 | 66 | 1009.5 |
| 20260510003503 | 16 | 207 | 11.3 | 22.5 | 0.00 | 0.41 | 0.25 | 67 | 1009.7 |
| 20260510003003 | 17 | 194 | 9.7 | 16.1 | 0.00 | 0.41 | 0.25 | 66 | 1009.6 |
| 20260510002503 | 17 | 202 | 11.3 | 16.1 | 0.00 | 0.41 | 0.25 | 66 | 1009.3 |
| 20260510002003 | 17 | 211 | 17.7 | 19.3 | 0.00 | 0.41 | 0.25 | 65 | 1009.3 |
| 20260510001717 | 17 | 216 | 11.3 | 19.3 | 0.00 | 0.41 | 0.25 | 66 | 1009.1 |
| 20260510001004 | 17 | 209 | 14.5 | 24.1 | 0.00 | 0.41 | 0.25 | 64 | 1009.1 |
| 20260510000503 | 17 | 209 | 9.7 | 22.5 | 0.00 | 0.41 | 0.25 | 65 | 1009.2 |
| 20260510000219 | 17 | 215 | 12.9 | 19.3 | 0.00 | 0.41 | 0.25 | 64 | 1009.1 |
| 20260509235503 | 17 | 215 | 17.7 | 30.6 | 0.00 | 0.41 | 0.25 | 63 | 1009.0 |
| 20260509235218 | 17 | 223 | 19.3 | 35.4 | 0.00 | 0.41 | 0.25 | 63 | 1008.9 |
| 20260509234503 | 17 | 207 | 19.3 | 38.6 | 0.00 | 0.41 | 0.25 | 63 | 1008.9 |
| 20260509234003 | 17 | 218 | 14.5 | 41.8 | 0.00 | 0.41 | 0.25 | 63 | 1008.9 |
| 20260509233503 | 17 | 215 | 16.1 | 24.1 | 0.00 | 0.41 | 0.25 | 63 | 1008.8 |
| 20260509233004 | 18 | 222 | 17.7 | 30.6 | 0.00 | 0.41 | 0.25 | 63 | 1008.8 |
| 20260509232503 | 17 | 197 | 12.9 | 27.4 | 0.00 | 0.41 | 0.25 | 63 | 1009.0 |
| 20260509232217 | 18 | 201 | 17.7 | 27.4 | 0.00 | 0.41 | 0.25 | 63 | 1009.0 |
| 20260509231503 | 18 | 217 | 17.7 | 38.6 | 0.00 | 0.41 | 0.25 | 62 | 1008.8 |
| 20260509231003 | 18 | 221 | 25.7 | 38.6 | 0.00 | 0.41 | 0.25 | 62 | 1008.8 |
| 20260509230716 | 18 | 216 | 9.7 | 22.5 | 0.00 | 0.41 | 0.25 | 62 | 1008.8 |
| 20260509230217 | 18 | 217 | 17.7 | 38.6 | 0.00 | 0.41 | 0.25 | 62 | 1008.6 |
| 20260509225503 | 18 | 217 | 24.1 | 27.4 | 0.00 | 0.41 | 0.25 | 62 | 1008.6 |
| 20260509225003 | 18 | 196 | 19.3 | 38.6 | 0.00 | 0.41 | 0.25 | 62 | 1008.5 |
| 20260509224503 | 18 | 209 | 22.5 | 46.7 | 0.00 | 0.41 | 0.25 | 62 | 1008.5 |
| 20260509224003 | 18 | 196 | 32.2 | 43.5 | 0.00 | 0.41 | 0.25 | 62 | 1008.6 |
| 20260509223503 | 18 | 201 | 20.9 | 41.8 | 0.00 | 0.41 | 0.25 | 62 | 1008.3 |
| 20260509223003 | 18 | 217 | 11.3 | 22.5 | 0.00 | 0.41 | 0.25 | 61 | 1008.4 |
| 20260509222718 | 18 | 215 | 11.3 | 22.5 | 0.00 | 0.41 | 0.25 | 60 | 1008.3 |
| 20260509222003 | 18 | 215 | 17.7 | 27.4 | 0.00 | 0.41 | 0.25 | 61 | 1008.3 |
| 20260509221503 | 18 | 217 | 19.3 | 41.8 | 0.00 | 0.41 | 0.25 | 61 | 1008.4 |
| 20260509221217 | 18 | 191 | 19.3 | 38.6 | 0.00 | 0.41 | 0.25 | 61 | 1008.4 |
| 20260509220503 | 18 | 216 | 17.7 | 33.8 | 0.00 | 0.41 | 0.25 | 62 | 1008.7 |
| 20260509220003 | 18 | 218 | 20.9 | 35.4 | 0.00 | 0.41 | 0.25 | 63 | 1008.7 |
| 20260509215503 | 18 | 214 | 14.5 | 30.6 | 0.00 | 0.41 | 0.25 | 62 | 1008.9 |
| 20260509215003 | 18 | 196 | 12.9 | 24.1 | 0.00 | 0.41 | 0.25 | 63 | 1008.7 |
| 20260509214503 | 18 | 216 | 22.5 | 38.6 | 0.00 | 0.41 | 0.25 | 63 | 1009.0 |
| 20260509214219 | 18 | 206 | 19.3 | 38.6 | 0.00 | 0.41 | 0.25 | 63 | 1008.9 |
| 20260509213504 | 18 | 209 | 14.5 | 24.1 | 0.00 | 0.41 | 0.25 | 62 | 1008.7 |
| 20260509213003 | 18 | 191 | 19.3 | 27.4 | 0.00 | 0.41 | 0.25 | 63 | 1008.9 |
| 20260509212503 | 18 | 211 | 27.4 | 38.6 | 0.00 | 0.41 | 0.25 | 64 | 1009.1 |
| 20260509212217 | 18 | 203 | 25.7 | 46.7 | 0.00 | 0.41 | 0.25 | 64 | 1009.0 |
| 20260509211503 | 18 | 211 | 19.3 | 27.4 | 0.00 | 0.41 | 0.25 | 63 | 1009.1 |
| 20260509211003 | 18 | 193 | 20.9 | 30.6 | 0.00 | 0.41 | 0.25 | 64 | 1009.0 |
| 20260509210503 | 18 | 209 | 19.3 | 27.4 | 0.00 | 0.41 | 0.25 | 64 | 1009.1 |
| 20260509210218 | 18 | 223 | 11.3 | 19.3 | 0.00 | 0.41 | 0.25 | 64 | 1009.1 |
| 20260509205503 | 17 | 219 | 24.1 | 41.8 | 0.00 | 0.41 | 0.25 | 66 | 1009.1 |
| 20260509205003 | 18 | 219 | 17.7 | 27.4 | 0.00 | 0.41 | 0.25 | 65 | 1009.3 |
| 20260509204504 | 18 | 193 | 12.9 | 27.4 | 0.00 | 0.41 | 0.25 | 67 | 1009.2 |
| 20260509204003 | 18 | 217 | 20.9 | 27.4 | 0.00 | 0.41 | 0.25 | 66 | 1009.2 |
| 20260509203503 | 17 | 200 | 25.7 | 38.6 | 0.00 | 0.41 | 0.25 | 67 | 1009.6 |
| 20260509203003 | 17 | 211 | 17.7 | 27.4 | 0.00 | 0.41 | 0.25 | 70 | 1009.5 |
| 20260509202504 | 17 | 199 | 14.5 | 41.8 | 0.00 | 0.41 | 0.25 | 71 | 1009.6 |
| 20260509202004 | 17 | 214 | 22.5 | 27.4 | 0.00 | 0.41 | 0.25 | 69 | 1009.6 |
| 20260509201503 | 17 | 242 | 17.7 | 35.4 | 0.00 | 0.41 | 0.25 | 69 | 1009.8 |
| 20260509201003 | 17 | 221 | 19.3 | 27.4 | 0.00 | 0.41 | 0.25 | 69 | 1009.8 |
| 20260509200503 | 17 | 238 | 14.5 | 22.5 | 0.00 | 0.41 | 0.25 | 70 | 1009.8 |
| 20260509200003 | 17 | 217 | 12.9 | 27.4 | 0.00 | 0.41 | 0.25 | 69 | 1009.8 |
| 20260509195717 | 17 | 207 | 20.9 | 27.4 | 0.00 | 0.41 | 0.25 | 70 | 1009.8 |
| 20260509195003 | 17 | 221 | 27.4 | 35.4 | 0.00 | 0.41 | 0.25 | 69 | 1010.0 |
| 20260509194503 | 17 | 248 | 17.7 | 30.6 | 0.00 | 0.41 | 0.25 | 70 | 1009.9 |
| 20260509194003 | 17 | 225 | 19.3 | 38.6 | 0.00 | 0.41 | 0.25 | 70 | 1009.8 |
| 20260509193503 | 17 | 227 | 14.5 | 38.6 | 0.00 | 0.41 | 0.25 | 70 | 1010.0 |
| 20260509193218 | 17 | 221 | 19.3 | 38.6 | 0.00 | 0.41 | 0.25 | 72 | 1009.9 |
| 20260509192503 | 16 | 227 | 19.3 | 38.6 | 0.00 | 0.43 | 0.25 | 72 | 1010.0 |
| 20260509192218 | 17 | 227 | 11.3 | 27.4 | 0.00 | 0.43 | 0.25 | 71 | 1010.3 |
| 20260509191503 | 16 | 223 | 17.7 | 24.1 | 0.00 | 0.43 | 0.25 | 73 | 1010.0 |
| 20260509191003 | 16 | 223 | 20.9 | 24.1 | 0.00 | 0.43 | 0.25 | 74 | 1010.3 |
| 20260509190719 | 16 | 209 | 19.3 | 24.1 | 0.00 | 0.43 | 0.25 | 74 | 1010.4 |
| 20260509190003 | 16 | 216 | 22.5 | 30.6 | 0.00 | 0.43 | 0.25 | 74 | 1010.4 |
| 20260509185503 | 16 | 195 | 9.7 | 22.5 | 0.00 | 0.43 | 0.25 | 77 | 1010.5 |
| 20260509185218 | 16 | 195 | 11.3 | 24.1 | 0.00 | 0.43 | 0.25 | 77 | 1010.5 |
| 20260509184503 | 16 | 212 | 17.7 | 41.8 | 0.00 | 0.43 | 0.25 | 76 | 1010.5 |
| 20260509184003 | 15 | 228 | 22.5 | 30.6 | 0.00 | 0.43 | 0.25 | 77 | 1010.6 |
| 20260509183503 | 15 | 225 | 20.9 | 35.4 | 0.00 | 0.43 | 0.25 | 77 | 1010.7 |
| 20260509183003 | 15 | 213 | 27.4 | 38.6 | 0.00 | 0.43 | 0.25 | 77 | 1010.7 |
| 20260509182503 | 15 | 209 | 24.1 | 33.8 | 0.00 | 0.43 | 0.25 | 78 | 1010.7 |
| 20260509182003 | 15 | 208 | 16.1 | 27.4 | 0.00 | 0.43 | 0.25 | 78 | 1010.8 |
| 20260509181503 | 15 | 214 | 27.4 | 41.8 | 0.00 | 0.43 | 0.25 | 80 | 1010.6 |
| 20260509181003 | 15 | 200 | 27.4 | 38.6 | 0.00 | 0.43 | 0.25 | 79 | 1010.8 |
| 20260509180503 | 15 | 209 | 22.5 | 41.8 | 0.00 | 0.43 | 0.25 | 80 | 1010.8 |
| 20260509180003 | 15 | 221 | 24.1 | 38.6 | 0.00 | 0.43 | 0.25 | 78 | 1010.7 |
| 20260509175503 | 15 | 230 | 22.5 | 27.4 | 0.00 | 0.43 | 0.25 | 79 | 1010.8 |
| 20260509175217 | 15 | 259 | 11.3 | 35.4 | 0.00 | 0.43 | 0.25 | 79 | 1010.8 |
| 20260509174503 | 15 | 222 | 17.7 | 27.4 | 0.00 | 0.43 | 0.25 | 78 | 1010.8 |
| 20260509174217 | 15 | 204 | 9.7 | 22.5 | 0.00 | 0.43 | 0.25 | 79 | 1010.8 |
| 20260509173503 | 15 | 232 | 19.3 | 30.6 | 0.00 | 0.43 | 0.25 | 79 | 1010.9 |
| 20260509173003 | 15 | 237 | 17.7 | 30.6 | 0.00 | 0.43 | 0.25 | 80 | 1010.9 |
| 20260509172718 | 15 | 247 | 19.3 | 30.6 | 0.00 | 0.43 | 0.25 | 80 | 1010.8 |
| 20260509172003 | 15 | 222 | 14.5 | 24.1 | 0.00 | 0.43 | 0.25 | 80 | 1010.9 |
| 20260509171503 | 15 | 221 | 20.9 | 33.8 | 0.00 | 0.43 | 0.25 | 81 | 1010.6 |
| 20260509171003 | 14 | 221 | 17.7 | 30.6 | 0.00 | 0.43 | 0.25 | 81 | 1010.5 |
| 20260509170503 | 15 | 244 | 20.9 | 35.4 | 0.00 | 0.43 | 0.25 | 82 | 1010.6 |
| 20260509170003 | 15 | 194 | 19.3 | 30.6 | 0.00 | 0.43 | 0.25 | 80 | 1010.6 |
| 20260509165503 | 15 | 224 | 19.3 | 33.8 | 0.00 | 0.43 | 0.25 | 83 | 1010.7 |
| 20260509165003 | 14 | 211 | 14.5 | 24.1 | 0.00 | 0.43 | 0.25 | 85 | 1010.7 |
| 20260509164503 | 14 | 212 | 16.1 | 27.4 | 0.00 | 0.43 | 0.25 | 85 | 1010.5 |
| 20260509164003 | 14 | 191 | 9.7 | 22.5 | 0.00 | 0.43 | 0.25 | 85 | 1010.4 |
| 20260509163503 | 14 | 212 | 16.1 | 22.5 | 0.00 | 0.43 | 0.25 | 85 | 1010.5 |
| 20260509163217 | 14 | 224 | 16.1 | 27.4 | 0.00 | 0.43 | 0.25 | 85 | 1010.5 |
| 20260509162503 | 14 | 210 | 19.3 | 27.4 | 0.00 | 0.43 | 0.25 | 86 | 1010.5 |
| 20260509162003 | 14 | 167 | 20.9 | 33.8 | 0.00 | 0.43 | 0.25 | 87 | 1010.4 |
| 20260509161503 | 13 | 231 | 9.7 | 24.1 | 0.00 | 0.43 | 0.25 | 88 | 1010.4 |
| 20260509161217 | 13 | 216 | 11.3 | 24.1 | 0.00 | 0.43 | 0.25 | 88 | 1010.4 |
| 20260509160504 | 13 | 204 | 24.1 | 35.4 | 0.00 | 0.43 | 0.25 | 88 | 1010.4 |
| 20260509160003 | 13 | 212 | 17.7 | 33.8 | 0.00 | 0.43 | 0.25 | 87 | 1010.6 |
| 20260509155503 | 13 | 206 | 11.3 | 27.4 | 0.00 | 0.43 | 0.25 | 91 | 1010.3 |
| 20260509155003 | 13 | 202 | 24.1 | 33.8 | 0.00 | 0.43 | 0.25 | 91 | 1010.3 |
| 20260509154503 | 13 | 188 | 19.3 | 24.1 | 0.00 | 0.43 | 0.25 | 92 | 1010.4 |
| 20260509154003 | 12 | 190 | 14.5 | 22.5 | 0.00 | 0.43 | 0.25 | 95 | 1010.3 |
| 20260509153503 | 12 | 179 | 17.7 | 22.5 | 0.00 | 0.43 | 0.25 | 96 | 1010.4 |
| 20260509153003 | 12 | 199 | 16.1 | 19.3 | 0.00 | 0.43 | 0.25 | 100 | 1010.3 |
| 20260509152503 | 12 | 194 | 11.3 | 16.1 | 0.00 | 0.43 | 0.25 | 100 | 1010.5 |
| 20260509152004 | 11 | 224 | 9.7 | 22.5 | 0.00 | 0.43 | 0.25 | 100 | 1010.6 |
| 20260509151717 | 11 | 226 | 11.3 | 12.9 | 0.00 | 0.43 | 0.25 | 100 | 1010.7 |
| 20260509151216 | 11 | 232 | 8.0 | 11.3 | 0.00 | 0.43 | 0.25 | 100 | 1010.7 |
| 20260509150504 | 11 | 194 | 8.0 | 12.9 | 0.03 | 0.43 | 0.25 | 100 | 1010.6 |
| 20260509150003 | 11 | 218 | 6.4 | 16.1 | 0.03 | 0.43 | 0.25 | 100 | 1010.5 |
| 20260509145503 | 11 | 203 | 11.3 | 22.5 | 0.03 | 0.43 | 0.25 | 100 | 1010.6 |
| 20260509145003 | 11 | 209 | 9.7 | 19.3 | 0.03 | 0.43 | 0.25 | 100 | 1010.4 |
| 20260509144503 | 11 | 218 | 9.7 | 16.1 | 0.03 | 0.43 | 0.25 | 100 | 1010.7 |
| 20260509144003 | 11 | 214 | 12.9 | 16.1 | 0.03 | 0.43 | 0.25 | 100 | 1010.6 |
| 20260509143503 | 11 | 220 | 16.1 | 22.5 | 0.03 | 0.43 | 0.25 | 100 | 1010.7 |
| 20260509143003 | 11 | 197 | 12.9 | 24.1 | 0.03 | 0.43 | 0.25 | 100 | 1010.5 |
| 20260509142503 | 11 | 193 | 12.9 | 16.1 | 0.03 | 0.43 | 0.25 | 100 | 1010.5 |
| 20260509142218 | 11 | 198 | 9.7 | 12.9 | 0.03 | 0.43 | 0.25 | 100 | 1010.5 |
| 20260509141503 | 10 | 196 | 6.4 | 16.1 | 0.03 | 0.43 | 0.25 | 100 | 1010.5 |
| 20260509141003 | 10 | 207 | 9.7 | 16.1 | 0.03 | 0.43 | 0.25 | 100 | 1010.7 |
| 20260509140503 | 10 | 204 | 9.7 | 16.1 | 0.00 | 0.41 | 0.23 | 100 | 1010.6 |
| 20260509140004 | 10 | 200 | 11.3 | 16.1 | 0.00 | 0.41 | 0.23 | 100 | 1010.7 |
| 20260509135503 | 10 | 198 | 11.3 | 19.3 | 0.00 | 0.41 | 0.23 | 100 | 1010.8 |
| 20260509135003 | 10 | 204 | 12.9 | 19.3 | 0.00 | 0.41 | 0.23 | 100 | 1010.9 |
| 20260509134717 | 10 | 202 | 14.5 | 19.3 | 0.03 | 0.41 | 0.23 | 100 | 1010.7 |
| 20260509134218 | 10 | 205 | 6.4 | 19.3 | 0.03 | 0.41 | 0.23 | 100 | 1010.6 |
| 20260509133503 | 10 | 210 | 16.1 | 24.1 | 0.03 | 0.41 | 0.23 | 100 | 1010.6 |
| 20260509133004 | 10 | 205 | 6.4 | 22.5 | 0.05 | 0.41 | 0.23 | 100 | 1010.7 |
| 20260509132504 | 10 | 206 | 11.3 | 16.1 | 0.05 | 0.41 | 0.23 | 100 | 1010.7 |
| 20260509132218 | 10 | 206 | 11.3 | 16.1 | 0.05 | 0.41 | 0.23 | 100 | 1010.8 |
| 20260509131503 | 10 | 203 | 11.3 | 22.5 | 0.05 | 0.41 | 0.23 | 100 | 1010.7 |
| 20260509131003 | 10 | 200 | 12.9 | 19.3 | 0.10 | 0.41 | 0.23 | 100 | 1010.7 |
| 20260509130503 | 10 | 211 | 9.7 | 16.1 | 0.10 | 0.41 | 0.23 | 100 | 1010.7 |
| 20260509130003 | 10 | 211 | 11.3 | 16.1 | 0.10 | 0.41 | 0.23 | 100 | 1010.8 |
| 20260509125503 | 10 | 207 | 11.3 | 24.1 | 0.10 | 0.41 | 0.23 | 100 | 1010.9 |
| 20260509125003 | 10 | 213 | 12.9 | 19.3 | 0.10 | 0.41 | 0.23 | 100 | 1010.8 |
| 20260509124503 | 10 | 200 | 9.7 | 19.3 | 0.10 | 0.38 | 0.20 | 100 | 1010.8 |
| 20260509124003 | 10 | 195 | 11.3 | 16.1 | 0.10 | 0.38 | 0.20 | 100 | 1011.0 |
| 20260509123503 | 10 | 200 | 9.7 | 19.3 | 0.10 | 0.38 | 0.20 | 100 | 1010.7 |
| 20260509123003 | 10 | 203 | 14.5 | 19.3 | 0.08 | 0.36 | 0.18 | 100 | 1010.9 |
| 20260509122503 | 10 | 206 | 9.7 | 16.1 | 0.08 | 0.36 | 0.18 | 100 | 1011.0 |
| 20260509122004 | 10 | 208 | 9.7 | 19.3 | 0.10 | 0.36 | 0.18 | 100 | 1010.9 |
| 20260509121504 | 10 | 200 | 17.7 | 19.3 | 0.10 | 0.36 | 0.18 | 100 | 1010.9 |
| 20260509121003 | 10 | 211 | 11.3 | 16.1 | 0.10 | 0.33 | 0.13 | 100 | 1011.1 |
| 20260509120503 | 10 | 204 | 11.3 | 16.1 | 0.10 | 0.33 | 0.13 | 100 | 1010.8 |
| 20260509120217 | 10 | 199 | 11.3 | 19.3 | 0.10 | 0.33 | 0.13 | 100 | 1011.0 |
| 20260509115503 | 10 | 203 | 11.3 | 16.1 | 0.10 | 0.33 | 0.13 | 100 | 1011.1 |
| 20260509115004 | 10 | 202 | 9.7 | 16.1 | 0.10 | 0.33 | 0.13 | 100 | 1010.9 |
| 20260509114718 | 10 | 213 | 9.7 | 16.1 | 0.08 | 0.30 | 0.10 | 100 | 1010.8 |
| 20260509114217 | 10 | 202 | 9.7 | 19.3 | 0.08 | 0.30 | 0.10 | 100 | 1010.9 |
| 20260509113503 | 10 | 200 | 12.9 | 19.3 | 0.05 | 0.28 | 0.10 | 100 | 1011.0 |
| 20260509113003 | 10 | 214 | 11.3 | 19.3 | 0.05 | 0.28 | 0.10 | 100 | 1010.8 |
| 20260509112503 | 10 | 196 | 12.9 | 22.5 | 0.05 | 0.28 | 0.10 | 100 | 1010.7 |
| 20260509112003 | 10 | 187 | 6.4 | 16.1 | 0.03 | 0.25 | 0.05 | 100 | 1010.8 |
| 20260509111503 | 10 | 203 | 6.4 | 11.3 | 0.03 | 0.25 | 0.05 | 100 | 1010.7 |
| 20260509111217 | 10 | 201 | 8.0 | 16.1 | 0.03 | 0.25 | 0.05 | 100 | 1010.7 |
| 20260509110503 | 10 | 198 | 8.0 | 16.1 | 0.00 | 0.23 | 0.03 | 100 | 1010.6 |
| 20260509110217 | 10 | 209 | 9.7 | 16.1 | 0.00 | 0.23 | 0.03 | 100 | 1010.7 |
| 20260509105503 | 10 | 211 | 12.9 | 16.1 | 0.00 | 0.23 | 0.03 | 100 | 1010.5 |
| 20260509105003 | 10 | 205 | 8.0 | 19.3 | 0.00 | 0.23 | 0.03 | 100 | 1010.6 |
| 20260509104503 | 10 | 206 | 8.0 | 12.9 | 0.03 | 0.23 | 0.03 | 100 | 1010.5 |
| 20260509104216 | 10 | 212 | 9.7 | 16.1 | 0.03 | 0.23 | 0.03 | 100 | 1010.5 |
| 20260509103503 | 10 | 197 | 8.0 | 11.3 | 0.03 | 0.23 | 0.03 | 100 | 1010.6 |
| 20260509103003 | 10 | 193 | 6.4 | 8.0 | 0.03 | 0.23 | 0.03 | 100 | 1010.5 |
| 20260509102503 | 10 | 204 | 9.7 | 16.1 | 0.03 | 0.23 | 0.03 | 100 | 1010.5 |
| 20260509102004 | 9 | 200 | 6.4 | 12.9 | 0.03 | 0.23 | 0.03 | 100 | 1010.5 |
| 20260509101503 | 9 | 201 | 9.7 | 16.1 | 0.03 | 0.23 | 0.03 | 100 | 1010.5 |
| 20260509101003 | 9 | 199 | 8.0 | 11.3 | 0.03 | 0.23 | 0.03 | 100 | 1010.4 |
| 20260509100503 | 9 | 188 | 4.8 | 11.3 | 0.03 | 0.23 | 0.03 | 100 | 1010.5 |
| 20260509100004 | 9 | 197 | 6.4 | 8.0 | 0.03 | 0.23 | 0.03 | 100 | 1010.6 |
| 20260509095717 | 9 | 195 | 3.2 | 8.0 | 0.03 | 0.23 | 0.03 | 100 | 1010.7 |
| 20260509095216 | 9 | 197 | 4.8 | 11.3 | 0.03 | 0.23 | 0.03 | 100 | 1010.7 |
| 20260509094504 | 9 | 217 | 9.7 | 12.9 | 0.00 | 0.18 | 0.00 | 100 | 1010.9 |
| 20260509094003 | 9 | 200 | 8.0 | 11.3 | 0.00 | 0.18 | 0.00 | 100 | 1010.8 |
| 20260509093503 | 9 | 190 | 6.4 | 11.3 | 0.00 | 0.18 | 0.00 | 100 | 1010.8 |
| 20260509093003 | 9 | 194 | 11.3 | 16.1 | 0.00 | 0.18 | 0.00 | 100 | 1010.9 |
| 20260509092503 | 8 | 176 | 6.4 | 11.3 | 0.00 | 0.18 | 0.00 | 100 | 1010.8 |
| 20260509092003 | 8 | 173 | 8.0 | 11.3 | 0.00 | 0.18 | 0.00 | 100 | 1010.8 |
| 20260509091503 | 8 | 171 | 4.8 | 4.8 | 0.00 | 0.18 | 0.00 | 100 | 1011.0 |
| 20260509091003 | 8 | 177 | 6.4 | 8.0 | 0.00 | 0.18 | 0.00 | 100 | 1011.3 |
| 20260509090503 | 8 | 170 | 3.2 | 4.8 | 0.00 | 0.18 | 0.00 | 100 | 1010.9 |
| 20260509090003 | 8 | 176 | 4.8 | 8.0 | 0.00 | 0.18 | 0.00 | 100 | 1011.0 |
| 20260509085504 | 8 | 170 | 1.6 | 3.2 | 0.00 | 0.18 | 0.00 | 100 | 1010.9 |
| 20260509085003 | 8 | 170 | 3.2 | 4.8 | 0.00 | 0.18 | 0.00 | 100 | 1011.2 |
| 20260509084503 | 8 | 171 | 4.8 | 8.0 | 0.00 | 0.18 | 0.00 | 100 | 1011.2 |
| 20260509084003 | 8 | 168 | 4.8 | 4.8 | 0.00 | 0.18 | 0.00 | 100 | 1011.2 |
| 20260509083717 | 8 | 164 | 4.8 | 4.8 | 0.00 | 0.18 | 0.00 | 100 | 1011.2 |
| 20260509083003 | 8 | 153 | 3.2 | 3.2 | 0.00 | 0.18 | 0.00 | 100 | 1011.2 |
| 20260509082503 | 8 | 72 | 0.0 | 3.2 | 0.00 | 0.18 | 0.00 | 100 | 1011.3 |
| 20260509082004 | 8 | 0 | 0.0 | 0.0 | 0.00 | 0.18 | 0.00 | 100 | 1011.2 |
| 20260509081503 | 8 | 0 | 0.0 | 0.0 | 0.00 | 0.18 | 0.00 | 100 | 1011.3 |
| 20260509081218 | 8 | 0 | 0.0 | 0.0 | 0.00 | 0.18 | 0.00 | 100 | 1011.3 |
| 20260509080716 | 8 | 109 | 0.0 | 4.8 | 0.00 | 0.18 | 0.00 | 100 | 1011.1 |
| 20260509080003 | 8 | 154 | 3.2 | 3.2 | 0.00 | 0.18 | 0.00 | 100 | 1011.2 |
| 20260509075716 | 8 | 154 | 3.2 | 3.2 | 0.00 | 0.18 | 0.00 | 100 | 1011.2 |
| 20260509075003 | 8 | 132 | 1.6 | 3.2 | 0.00 | 0.18 | 0.00 | 100 | 1011.1 |
| 20260509074503 | 8 | 138 | 3.2 | 3.2 | 0.00 | 0.18 | 0.00 | 100 | 1011.2 |
| 20260509074003 | 8 | 0 | 0.0 | 0.0 | 0.00 | 0.18 | 0.00 | 100 | 1011.4 |
| 20260509073503 | 8 | 148 | 0.0 | 3.2 | 0.00 | 0.18 | 0.00 | 100 | 1011.3 |
| 20260509073003 | 8 | 148 | 1.6 | 3.2 | 0.00 | 0.18 | 0.00 | 100 | 1011.3 |
| 20260509072503 | 8 | 147 | 0.0 | 3.2 | 0.00 | 0.18 | 0.00 | 100 | 1011.3 |
| 20260509072003 | 8 | 147 | 0.0 | 3.2 | 0.00 | 0.18 | 0.00 | 100 | 1011.1 |